createdAt,value
2023-01-07T00:01:38.989Z,101281.78
2023-01-07T00:04:08.119Z,101283.03
2023-01-07T00:06:37.292Z,101292.41
2023-01-07T00:09:06.647Z,101261.69
2023-01-07T00:11:36.766Z,101284.47
2023-01-07T00:14:05.508Z,101282.91
2023-01-07T00:16:33.959Z,101291.25
2023-01-07T00:19:02.715Z,101283.56
2023-01-07T00:21:30.293Z,101284.84
2023-01-07T00:23:59.649Z,101280.13
2023-01-07T00:26:28.038Z,101278.16
2023-01-07T00:28:54.829Z,101278.34
2023-01-07T00:31:22.857Z,101277.53
2023-01-07T00:33:59.692Z,101271.63
2023-01-07T00:36:30.013Z,101270.03
2023-01-07T00:38:58.702Z,101260.31
2023-01-07T00:41:25.834Z,101272.50
2023-01-07T00:43:52.658Z,101250.47
2023-01-07T00:46:19.541Z,101262.81
2023-01-07T00:48:46.579Z,101264.97
2023-01-07T00:51:15.192Z,101263.00
2023-01-07T00:53:42.347Z,101247.56
2023-01-07T00:56:13.975Z,101254.44
2023-01-07T00:58:40.979Z,101247.63
2023-01-07T01:01:07.898Z,101254.19
2023-01-07T01:03:34.802Z,101244.13
2023-01-07T01:06:08.356Z,101240.38
2023-01-07T01:08:35.571Z,101256.13
2023-01-07T01:11:07.127Z,101260.53
2023-01-07T01:13:34.267Z,101233.16
2023-01-07T01:16:01.219Z,101229.84
2023-01-07T01:18:28.288Z,101248.22
2023-01-07T01:20:55.420Z,101248.53
2023-01-07T01:23:22.265Z,101256.06
2023-01-07T01:25:48.968Z,101246.59
2023-01-07T01:28:15.716Z,101242.94
2023-01-07T01:30:42.576Z,101225.91
2023-01-07T01:33:09.229Z,101251.66
2023-01-07T01:35:40.258Z,101235.91
2023-01-07T01:38:06.890Z,101216.38
2023-01-07T01:40:33.754Z,101231.59
2023-01-07T01:43:00.460Z,101246.38
2023-01-07T01:45:27.181Z,101227.69
2023-01-07T01:47:59.867Z,101226.59
2023-01-07T01:50:44.238Z,101253.25
2023-01-07T01:53:16.469Z,101257.69
2023-01-07T01:55:49.271Z,101249.66
2023-01-07T01:58:24.354Z,101253.41
2023-01-07T02:00:51.983Z,101249.59
2023-01-07T02:03:20.949Z,101251.94
2023-01-07T02:05:49.159Z,101253.72
2023-01-07T02:08:22.113Z,101249.44
2023-01-07T02:11:01.323Z,101227.50
2023-01-07T02:13:49.879Z,101238.16
2023-01-07T02:16:43.180Z,101232.75
2023-01-07T02:19:47.719Z,101237.50
2023-01-07T02:23:05.151Z,101235.72
2023-01-07T02:25:50.033Z,101234.06
2023-01-07T02:28:41.376Z,101238.31
2023-01-07T02:31:08.046Z,101237.19
2023-01-07T02:34:07.119Z,101228.84
2023-01-07T02:36:45.231Z,101219.66
2023-01-07T02:39:27.062Z,101218.69
2023-01-07T02:42:21.961Z,101211.59
2023-01-07T02:45:15.142Z,101216.53
2023-01-07T02:47:52.436Z,101212.06
2023-01-07T02:50:19.236Z,101213.56
2023-01-07T02:52:46.318Z,101153.66
2023-01-07T02:55:18.238Z,101222.28
2023-01-07T02:58:23.060Z,101198.53
2023-01-07T03:01:28.677Z,101207.59
2023-01-07T03:04:08.614Z,101167.25
2023-01-07T03:06:54.678Z,101206.78
2023-01-07T03:09:24.187Z,101193.19
2023-01-07T03:12:09.921Z,101191.03
2023-01-07T03:14:49.001Z,101194.34
2023-01-07T03:17:21.375Z,101165.91
2023-01-07T03:19:55.109Z,101172.31
2023-01-07T03:22:27.924Z,101171.41
2023-01-07T03:24:57.737Z,101181.56
2023-01-07T03:27:27.832Z,101182.38
2023-01-07T03:29:56.205Z,101160.53
2023-01-07T03:32:37.631Z,101182.84
2023-01-07T03:35:04.992Z,101180.22
2023-01-07T03:37:34.287Z,101151.06
2023-01-07T03:40:03.426Z,101175.00
2023-01-07T03:42:40.622Z,101151.75
2023-01-07T03:45:14.724Z,101169.59
2023-01-07T03:47:44.841Z,101164.00
2023-01-07T03:50:11.735Z,101163.88
2023-01-07T03:52:38.488Z,101145.81
2023-01-07T03:55:05.853Z,101160.44
2023-01-07T03:57:33.375Z,101144.44
2023-01-07T04:00:00.261Z,101160.13
2023-01-07T04:02:27.257Z,101160.13
2023-01-07T04:04:54.044Z,101134.56
2023-01-07T04:07:20.888Z,101149.38
2023-01-07T04:09:49.780Z,101134.78
2023-01-07T04:12:17.168Z,101133.47
2023-01-07T04:14:44.109Z,101146.06
2023-01-07T04:17:11.100Z,101125.91
2023-01-07T04:19:39.249Z,101118.34
2023-01-07T04:22:15.559Z,101105.56
2023-01-07T04:24:42.184Z,101118.66
2023-01-07T04:27:09.174Z,101136.88
2023-01-07T04:29:35.973Z,101121.78
2023-01-07T04:32:02.892Z,101132.75
2023-01-07T04:34:29.613Z,101124.75
2023-01-07T04:36:56.395Z,101114.63
2023-01-07T04:39:23.038Z,101094.63
2023-01-07T04:41:49.745Z,101108.56
2023-01-07T04:44:17.885Z,101105.75
2023-01-07T04:46:45.049Z,101116.09
2023-01-07T04:49:11.899Z,101109.19
2023-01-07T04:51:38.841Z,101119.03
2023-01-07T04:54:05.561Z,101092.50
2023-01-07T04:56:32.831Z,101110.69
2023-01-07T04:59:04.531Z,101103.44
2023-01-07T05:01:32.806Z,101109.34
2023-01-07T05:03:59.803Z,101103.94
2023-01-07T05:06:26.677Z,101090.81
2023-01-07T05:08:53.438Z,101088.06
2023-01-07T05:11:21.986Z,101097.91
2023-01-07T05:13:50.075Z,101078.75
2023-01-07T05:16:17.372Z,101069.88
2023-01-07T05:18:44.533Z,101080.84
2023-01-07T05:21:12.564Z,101075.59
2023-01-07T05:23:39.221Z,101078.09
2023-01-07T05:26:06.194Z,101072.19
2023-01-07T05:28:33.026Z,101074.97
2023-01-07T05:30:59.743Z,101063.78
2023-01-07T05:33:26.559Z,101063.06
2023-01-07T05:35:53.413Z,101070.25
2023-01-07T05:38:20.149Z,101073.09
2023-01-07T05:40:50.070Z,101074.13
2023-01-07T05:43:17.654Z,101067.69
2023-01-07T05:45:48.516Z,101058.84
2023-01-07T05:48:15.645Z,101057.34
2023-01-07T05:50:42.797Z,101068.06
2023-01-07T05:53:09.439Z,101070.47
2023-01-07T05:55:37.035Z,101049.81
2023-01-07T05:58:03.854Z,101063.75
2023-01-07T06:00:30.818Z,101044.50
2023-01-07T06:02:57.734Z,101057.28
2023-01-07T06:05:24.573Z,101058.25
2023-01-07T06:07:51.227Z,101070.31
2023-01-07T06:10:18.027Z,101052.25
2023-01-07T06:12:44.756Z,101069.41
2023-01-07T06:15:14.241Z,101051.34
2023-01-07T06:17:40.987Z,101052.47
2023-01-07T06:20:09.419Z,101054.34
2023-01-07T06:22:36.552Z,101056.66
2023-01-07T06:25:04.366Z,101054.34
2023-01-07T06:27:31.119Z,101031.16
2023-01-07T06:29:58.103Z,101046.22
2023-01-07T06:32:24.946Z,101046.13
2023-01-07T06:34:51.703Z,101048.97
2023-01-07T06:37:18.491Z,101047.47
2023-01-07T06:39:45.215Z,101041.59
2023-01-07T06:42:11.837Z,101042.53
2023-01-07T06:44:39.412Z,101039.69
2023-01-07T06:47:09.209Z,101038.06
2023-01-07T06:49:35.874Z,101033.59
2023-01-07T06:52:03.106Z,101005.44
2023-01-07T06:54:29.788Z,101032.78
2023-01-07T06:56:56.401Z,101038.97
2023-01-07T06:59:23.100Z,101035.00
2023-01-07T07:01:49.919Z,101007.44
2023-01-07T07:04:16.718Z,101030.97
2023-01-07T07:06:43.484Z,101016.63
2023-01-07T07:09:10.238Z,101027.03
2023-01-07T07:11:36.931Z,101020.69
2023-01-07T07:14:04.369Z,101028.66
2023-01-07T07:16:32.643Z,101028.66
2023-01-07T07:19:01.681Z,101027.16
2023-01-07T07:21:28.315Z,101022.63
2023-01-07T07:23:55.159Z,101026.16
2023-01-07T07:26:21.864Z,101021.22
2023-01-07T07:28:48.534Z,101029.25
2023-01-07T07:31:15.324Z,101026.81
2023-01-07T07:33:42.036Z,101008.09
2023-01-07T07:36:09.029Z,101024.94
2023-01-07T07:38:35.733Z,101020.97
2023-01-07T07:41:02.929Z,101019.50
2023-01-07T07:43:29.577Z,101007.44
2023-01-07T07:45:57.928Z,101008.69
2023-01-07T07:48:24.616Z,100995.66
2023-01-07T07:50:52.105Z,101009.53
2023-01-07T07:53:20.162Z,101004.84
2023-01-07T07:55:47.095Z,100992.25
2023-01-07T07:58:14.358Z,101001.69
2023-01-07T08:00:41.129Z,100995.25
2023-01-07T08:03:07.878Z,101003.84
2023-01-07T08:05:34.560Z,100996.84
2023-01-07T08:08:01.374Z,101003.81
2023-01-07T08:10:29.120Z,100991.03
2023-01-07T08:12:55.748Z,100991.03
2023-01-07T08:15:22.555Z,100978.28
2023-01-07T08:17:57.272Z,101006.00
2023-01-07T08:20:24.087Z,101005.19
2023-01-07T08:22:50.730Z,101003.94
2023-01-07T08:25:17.363Z,101002.38
2023-01-07T08:27:44.156Z,100979.13
2023-01-07T08:30:12.061Z,101007.53
2023-01-07T08:32:38.777Z,100982.97
2023-01-07T08:35:05.922Z,100989.88
2023-01-07T08:37:32.856Z,100935.97
2023-01-07T08:39:59.497Z,100991.59
2023-01-07T08:42:26.895Z,100995.91
2023-01-07T08:44:53.534Z,100985.47
2023-01-07T08:47:20.194Z,100985.56
2023-01-07T08:49:46.940Z,100975.75
2023-01-07T08:52:13.583Z,100979.25
2023-01-07T08:54:40.399Z,100982.69
2023-01-07T08:57:07.187Z,100972.56
2023-01-07T08:59:33.900Z,100956.59
2023-01-07T09:02:00.701Z,100984.31
2023-01-07T09:04:27.628Z,100970.44
2023-01-07T09:06:54.275Z,100985.28
2023-01-07T09:09:22.004Z,100978.81
2023-01-07T09:11:48.734Z,100973.69
2023-01-07T09:14:15.412Z,100972.16
2023-01-07T09:16:42.134Z,100973.63
2023-01-07T09:19:09.242Z,100972.81
2023-01-07T09:21:35.947Z,100964.84
2023-01-07T09:24:02.618Z,100957.97
2023-01-07T09:26:29.370Z,100958.44
2023-01-07T09:28:56.036Z,100959.63
2023-01-07T09:31:22.905Z,100960.97
2023-01-07T09:33:51.241Z,100943.75
2023-01-07T09:36:17.925Z,100944.09
2023-01-07T09:38:44.640Z,100940.53
2023-01-07T09:41:40.117Z,100944.88
2023-01-07T09:44:12.299Z,100940.59
2023-01-07T09:46:39.268Z,100937.69
2023-01-07T09:49:08.450Z,100929.63
2023-01-07T09:51:41.421Z,100931.63
2023-01-07T09:54:44.366Z,100917.25
2023-01-07T09:57:16.432Z,100919.41
2023-01-07T09:59:44.209Z,100935.28
2023-01-07T10:02:35.850Z,100928.31
2023-01-07T10:05:32.088Z,100932.91
2023-01-07T10:08:29.701Z,100905.16
2023-01-07T10:11:29.999Z,100909.56
2023-01-07T10:13:56.696Z,100925.16
2023-01-07T10:16:45.617Z,100922.06
2023-01-07T10:19:24.752Z,100917.81
2023-01-07T10:22:03.319Z,100913.75
2023-01-07T10:24:39.527Z,100910.28
2023-01-07T10:27:15.681Z,100913.28
2023-01-07T10:29:54.730Z,100906.75
2023-01-07T10:32:23.426Z,100886.94
2023-01-07T10:34:54.122Z,100892.66
2023-01-07T10:37:55.909Z,100905.44
2023-01-07T10:40:24.607Z,100895.94
2023-01-07T10:43:00.066Z,100890.06
2023-01-07T10:45:41.117Z,100877.28
2023-01-07T10:48:26.849Z,100887.75
2023-01-07T10:51:31.176Z,100874.03
2023-01-07T10:54:16.655Z,100873.84
2023-01-07T10:56:48.889Z,100866.69
2023-01-07T10:59:18.662Z,100861.59
2023-01-07T11:01:59.791Z,100861.44
2023-01-07T11:04:26.827Z,100838.88
2023-01-07T11:06:59.160Z,100791.13
2023-01-07T11:09:46.960Z,100815.34
2023-01-07T11:12:51.903Z,100822.69
2023-01-07T11:15:26.957Z,100814.03
2023-01-07T11:18:02.461Z,100813.41
2023-01-07T11:20:45.248Z,100786.75
2023-01-07T11:23:37.320Z,100799.47
2023-01-07T11:26:17.940Z,100808.47
2023-01-07T11:28:53.902Z,100797.16
2023-01-07T11:31:23.358Z,100792.06
2023-01-07T11:34:01.511Z,100785.84
2023-01-07T11:36:42.452Z,100755.28
2023-01-07T11:39:20.308Z,100768.31
2023-01-07T11:42:00.790Z,100764.69
2023-01-07T11:44:27.911Z,100749.75
2023-01-07T11:46:55.131Z,100740.56
2023-01-07T11:49:31.055Z,100745.91
2023-01-07T11:51:58.695Z,100736.88
2023-01-07T11:54:28.335Z,100740.75
2023-01-07T11:57:23.558Z,100727.59
2023-01-07T12:00:12.652Z,100722.81
2023-01-07T12:02:39.866Z,100712.94
2023-01-07T12:05:22.968Z,100709.91
2023-01-07T12:07:51.575Z,100694.59
2023-01-07T12:10:35.387Z,100682.41
2023-01-07T12:13:07.244Z,100679.97
2023-01-07T12:15:46.549Z,100671.03
2023-01-07T12:18:19.155Z,100669.97
2023-01-07T12:21:07.461Z,100661.09
2023-01-07T12:23:41.806Z,100657.16
2023-01-07T12:26:19.352Z,100651.66
2023-01-07T12:29:37.849Z,100655.88
2023-01-07T12:32:19.360Z,100643.53
2023-01-07T12:34:49.205Z,100638.47
2023-01-07T12:37:46.314Z,100637.56
2023-01-07T12:40:13.010Z,100629.81
2023-01-07T12:42:45.916Z,100633.31
2023-01-07T12:45:21.010Z,100633.47
2023-01-07T12:47:52.924Z,100602.25
2023-01-07T12:50:53.348Z,100615.09
2023-01-07T12:53:38.959Z,100612.69
2023-01-07T12:56:32.674Z,100600.91
2023-01-07T12:59:07.185Z,100600.25
2023-01-07T13:01:43.677Z,100604.03
2023-01-07T13:04:43.162Z,100578.47
2023-01-07T13:07:27.960Z,100581.91
2023-01-07T13:10:07.410Z,100593.22
2023-01-07T13:12:45.700Z,100586.66
2023-01-07T13:15:27.787Z,100547.69
2023-01-07T13:17:59.703Z,100573.72
2023-01-07T13:24:02.628Z,100566.97
2023-01-07T13:26:35.516Z,100568.56
2023-01-07T13:32:31.284Z,100555.81
2023-01-07T13:35:36.641Z,100555.66
2023-01-07T13:38:30.894Z,100546.53
2023-01-07T13:41:19.490Z,100551.19
2023-01-07T13:44:20.137Z,100543.03
2023-01-07T13:46:48.489Z,100533.25
2023-01-07T13:49:30.990Z,100543.34
2023-01-07T13:52:14.122Z,100531.03
2023-01-07T13:54:50.639Z,100528.59
2023-01-07T13:57:26.418Z,100521.91
2023-01-07T13:59:53.773Z,100534.16
2023-01-07T14:02:25.764Z,100526.13
2023-01-07T14:05:07.834Z,100512.94
2023-01-07T14:08:04.262Z,100519.28
2023-01-07T14:10:36.247Z,100496.06
2023-01-07T14:13:30.043Z,100519.75
2023-01-07T14:16:35.503Z,100497.59
2023-01-07T14:19:12.718Z,100503.28
2023-01-07T14:22:05.755Z,100486.06
2023-01-07T14:25:06.545Z,100512.94
2023-01-07T14:27:46.637Z,100496.03
2023-01-07T14:30:35.222Z,100488.91
2023-01-07T14:33:04.730Z,100495.59
2023-01-07T14:35:39.704Z,100491.28
2023-01-07T14:38:31.406Z,100490.09
2023-01-07T14:41:04.445Z,100484.13
2023-01-07T14:43:43.640Z,100486.34
2023-01-07T14:46:30.398Z,100480.34
2023-01-07T14:49:03.170Z,100477.72
2023-01-07T14:51:47.890Z,100485.16
2023-01-07T14:54:42.067Z,100484.88
2023-01-07T14:57:18.381Z,100471.63
2023-01-07T15:00:06.888Z,100466.81
2023-01-07T15:02:58.536Z,100460.13
2023-01-07T15:05:47.162Z,100458.31
2023-01-07T15:08:38.341Z,100429.88
2023-01-07T15:11:29.114Z,100426.22
2023-01-07T15:14:19.865Z,100451.88
2023-01-07T15:16:49.522Z,100441.63
2023-01-07T15:19:16.505Z,100393.66
2023-01-07T15:21:52.476Z,100424.63
2023-01-07T15:24:40.329Z,100430.06
2023-01-07T15:27:46.332Z,100440.63
2023-01-07T15:30:13.275Z,100442.47
2023-01-07T15:33:27.754Z,100419.19
2023-01-07T15:35:56.699Z,100407.03
2023-01-07T15:38:28.151Z,100416.50
2023-01-07T15:40:57.076Z,100410.53
2023-01-07T15:43:26.839Z,100399.97
2023-01-07T15:46:04.679Z,100403.25
2023-01-07T15:48:31.520Z,100388.91
2023-01-07T15:51:00.165Z,100404.88
2023-01-07T15:53:29.620Z,100402.47
2023-01-07T15:56:00.255Z,100378.50
2023-01-07T15:58:35.123Z,100380.81
2023-01-07T16:01:06.212Z,100388.31
2023-01-07T16:03:37.164Z,100379.50
2023-01-07T16:06:04.165Z,100383.41
2023-01-07T16:08:33.907Z,100387.84
2023-01-07T16:11:25.679Z,100385.84
2023-01-07T16:14:25.899Z,100386.84
2023-01-07T16:17:26.067Z,100374.16
2023-01-07T16:20:12.585Z,100369.44
2023-01-07T16:22:40.895Z,100359.00
2023-01-07T16:25:16.415Z,100369.41
2023-01-07T16:27:43.260Z,100338.78
2023-01-07T16:30:17.226Z,100348.72
2023-01-07T16:32:45.994Z,100350.38
2023-01-07T16:35:19.714Z,100345.81
2023-01-07T16:37:48.182Z,100330.34
2023-01-07T16:40:24.281Z,100334.09
2023-01-07T16:42:51.126Z,100358.53
2023-01-07T16:45:27.182Z,100346.63
2023-01-07T16:48:12.957Z,100342.59
2023-01-07T16:50:42.571Z,100347.31
2023-01-07T16:53:26.122Z,100347.47
2023-01-07T16:55:55.614Z,100335.09
2023-01-07T16:58:55.765Z,100356.44
2023-01-07T17:01:36.147Z,100339.47
2023-01-07T17:04:09.099Z,100325.50
2023-01-07T17:06:41.306Z,100321.41
2023-01-07T17:09:24.674Z,100311.78
2023-01-07T17:11:52.772Z,100315.34
2023-01-07T17:14:34.860Z,100318.28
2023-01-07T17:17:07.211Z,100322.00
2023-01-07T17:19:47.927Z,100298.22
2023-01-07T17:22:34.134Z,100310.75
2023-01-07T17:25:14.166Z,100305.53
2023-01-07T17:28:12.101Z,100313.31
2023-01-07T17:30:47.284Z,100305.66
2023-01-07T17:33:18.241Z,100302.53
2023-01-07T17:35:47.913Z,100306.75
2023-01-07T17:38:16.397Z,100303.00
2023-01-07T17:40:44.574Z,100297.28
2023-01-07T17:43:36.111Z,100284.53
2023-01-07T17:46:08.904Z,100285.34
2023-01-07T17:48:36.486Z,100290.50
2023-01-07T17:51:04.635Z,100283.81
2023-01-07T17:53:43.661Z,100264.28
2023-01-07T17:56:10.539Z,100278.78
2023-01-07T17:58:39.235Z,100289.19
2023-01-07T18:01:10.953Z,100294.22
2023-01-07T18:03:37.687Z,100274.50
2023-01-07T18:06:12.177Z,100285.06
2023-01-07T18:08:40.347Z,100289.47
2023-01-07T18:11:25.816Z,100263.59
2023-01-07T18:13:52.511Z,100291.53
2023-01-07T18:16:19.259Z,100284.16
2023-01-07T18:18:45.990Z,100286.25
2023-01-07T18:21:12.767Z,100279.47
2023-01-07T18:23:39.574Z,100279.28
2023-01-07T18:26:06.867Z,100273.25
2023-01-07T18:28:33.604Z,100272.78
2023-01-07T18:31:00.561Z,100276.72
2023-01-07T18:33:27.393Z,100278.47
2023-01-07T18:35:54.292Z,100263.22
2023-01-07T18:38:21.148Z,100274.56
2023-01-07T18:40:48.286Z,100265.94
2023-01-07T18:43:18.379Z,100266.75
2023-01-07T18:45:48.871Z,100206.53
2023-01-07T18:48:18.386Z,100256.34
2023-01-07T18:50:48.131Z,100244.47
2023-01-07T18:53:15.220Z,100244.09
2023-01-07T18:55:43.653Z,100248.13
2023-01-07T18:58:14.882Z,100217.53
2023-01-07T19:00:42.391Z,100233.31
2023-01-07T19:03:10.791Z,100232.84
2023-01-07T19:05:40.104Z,100234.59
2023-01-07T19:08:06.909Z,100216.69
2023-01-07T19:10:33.644Z,100211.84
2023-01-07T19:13:01.617Z,100212.31
2023-01-07T19:15:28.453Z,100208.56
2023-01-07T19:17:55.166Z,100194.94
2023-01-07T19:20:21.861Z,100201.91
2023-01-07T19:22:48.627Z,100179.00
2023-01-07T19:25:15.332Z,100200.22
2023-01-07T19:27:42.006Z,100192.34
2023-01-07T19:30:09.566Z,100178.00
2023-01-07T19:32:36.344Z,100187.56
2023-01-07T19:35:03.155Z,100170.88
2023-01-07T19:37:29.904Z,100166.66
2023-01-07T19:39:56.582Z,100162.38
2023-01-07T19:42:24.353Z,100157.81
2023-01-07T19:44:51.050Z,100164.31
2023-01-07T19:47:17.789Z,100166.75
2023-01-07T19:49:45.552Z,100157.56
2023-01-07T19:52:13.666Z,100124.56
2023-01-07T19:54:41.187Z,100140.53
2023-01-07T19:57:07.920Z,100166.94
2023-01-07T19:59:35.226Z,100153.78
2023-01-07T20:02:03.276Z,100167.38
2023-01-07T20:04:30.372Z,100153.75
2023-01-07T20:06:57.215Z,100170.41
2023-01-07T20:09:35.355Z,100179.47
2023-01-07T20:12:02.330Z,100086.84
2023-01-07T20:14:29.087Z,100159.28
2023-01-07T20:16:59.361Z,100183.84
2023-01-07T20:19:27.397Z,100184.97
2023-01-07T20:21:54.260Z,100176.16
2023-01-07T20:24:21.744Z,100179.16
2023-01-07T20:26:48.460Z,100174.75
2023-01-07T20:29:15.151Z,100162.00
2023-01-07T20:31:48.222Z,100130.63
2023-01-07T20:34:15.031Z,100138.81
2023-01-07T20:36:41.797Z,100151.81
2023-01-07T20:39:09.044Z,100162.59
2023-01-07T20:41:36.419Z,100163.88
2023-01-07T20:44:05.009Z,100153.44
2023-01-07T20:46:34.808Z,100146.50
2023-01-07T20:49:02.591Z,100143.44
2023-01-07T20:51:29.898Z,100092.94
2023-01-07T20:53:57.834Z,100145.78
2023-01-07T20:56:24.965Z,100053.66
2023-01-07T20:58:52.085Z,100008.00
2023-01-07T21:01:21.129Z,100142.13
2023-01-07T21:03:50.178Z,100136.00
2023-01-07T21:06:18.970Z,100139.97
2023-01-07T21:08:47.317Z,100104.06
2023-01-07T21:11:19.305Z,100131.66
2023-01-07T21:13:46.334Z,100113.75
2023-01-07T21:16:14.158Z,100134.50
2023-01-07T21:18:41.363Z,100119.34
2023-01-07T21:21:14.044Z,100136.69
2023-01-07T21:23:41.435Z,100119.94
2023-01-07T21:26:08.878Z,100111.63
2023-01-07T21:28:36.257Z,100136.34
2023-01-07T21:31:09.190Z,100106.47
2023-01-07T21:33:36.761Z,100126.59
2023-01-07T21:36:22.242Z,100060.06
2023-01-07T21:38:56.625Z,100112.72
2023-01-07T21:41:24.846Z,100087.66
2023-01-07T21:43:51.683Z,99952.09
2023-01-07T21:46:18.840Z,100111.47
2023-01-07T21:48:47.015Z,100069.53
2023-01-07T21:51:20.143Z,100094.44
2023-01-07T21:53:47.095Z,100054.88
2023-01-07T21:56:17.491Z,100101.28
2023-01-07T21:58:45.724Z,100075.31
2023-01-07T22:01:13.620Z,100096.06
2023-01-07T22:03:43.813Z,100106.78
2023-01-07T22:06:21.570Z,100099.09
2023-01-07T22:08:57.641Z,100111.00
2023-01-07T22:11:25.390Z,100118.94
2023-01-07T22:13:57.419Z,100125.84
2023-01-07T22:16:33.371Z,100120.19
2023-01-07T22:19:05.365Z,100120.19
2023-01-07T22:21:35.902Z,100110.44
2023-01-07T22:24:02.870Z,99984.94
2023-01-07T22:26:34.331Z,100112.16
2023-01-07T22:29:03.396Z,100054.03
2023-01-07T22:31:35.090Z,100118.00
2023-01-07T22:34:06.055Z,100110.44
2023-01-07T22:39:51.877Z,100120.81
2023-01-07T22:42:23.644Z,100119.31
2023-01-07T22:44:56.003Z,100119.09
2023-01-07T22:47:27.088Z,100098.75
2023-01-07T22:49:54.540Z,100117.50
2023-01-07T22:52:21.754Z,100103.59
2023-01-07T22:54:48.714Z,100110.00
2023-01-07T22:57:16.228Z,100105.78
2023-01-07T22:59:43.458Z,100106.38
2023-01-07T23:02:11.381Z,100105.56
2023-01-07T23:04:38.197Z,100095.84
2023-01-07T23:07:04.949Z,100082.06
2023-01-07T23:09:31.702Z,100082.59
2023-01-07T23:12:01.871Z,100087.28
2023-01-07T23:14:29.778Z,100059.28
2023-01-07T23:16:59.565Z,100091.16
2023-01-07T23:19:26.270Z,100085.31
2023-01-07T23:21:54.398Z,100073.78
2023-01-07T23:24:22.481Z,100080.53
2023-01-07T23:26:51.787Z,100092.78
2023-01-07T23:29:19.343Z,100049.94
2023-01-07T23:31:46.201Z,100087.63
2023-01-07T23:34:13.696Z,100081.94
2023-01-07T23:36:40.513Z,100081.94
2023-01-07T23:39:07.211Z,100062.88
2023-01-07T23:41:35.197Z,100069.50
2023-01-07T23:44:01.946Z,100053.81
2023-01-07T23:46:28.722Z,100050.75
2023-01-07T23:48:55.377Z,100061.97
2023-01-07T23:51:22.323Z,100057.19
2023-01-07T23:53:49.815Z,100062.16
2023-01-07T23:56:21.218Z,100040.06
2023-01-07T23:58:49.225Z,100070.25
